sensor_id;sensor_type;location;lat;lon;timestamp;P1;durP1;ratioP1;P2;durP2;ratioP2
27265;SDS011;14766;51.380;13.762;2023-03-23T00:00:00;2.13;;;1.35;;
27265;SDS011;14766;51.380;13.762;2023-03-23T00:05:06;1.80;;;1.10;;
27265;SDS011;14766;51.380;13.762;2023-03-23T00:07:33;1.67;;;1.15;;
27265;SDS011;14766;51.380;13.762;2023-03-23T00:10:00;3.33;;;1.60;;
27265;SDS011;14766;51.380;13.762;2023-03-23T00:12:28;2.80;;;1.00;;
27265;SDS011;14766;51.380;13.762;2023-03-23T00:14:59;2.42;;;1.17;;
27265;SDS011;14766;51.380;13.762;2023-03-23T00:17:26;1.38;;;1.00;;
27265;SDS011;14766;51.380;13.762;2023-03-23T00:19:53;2.13;;;1.08;;
27265;SDS011;14766;51.380;13.762;2023-03-23T00:22:19;2.80;;;1.20;;
27265;SDS011;14766;51.380;13.762;2023-03-23T00:24:46;1.65;;;0.90;;
27265;SDS011;14766;51.380;13.762;2023-03-23T00:27:15;1.60;;;1.27;;
27265;SDS011;14766;51.380;13.762;2023-03-23T00:29:42;2.17;;;1.58;;
27265;SDS011;14766;51.380;13.762;2023-03-23T00:32:10;1.60;;;1.20;;
27265;SDS011;14766;51.380;13.762;2023-03-23T00:34:38;2.50;;;1.23;;
27265;SDS011;14766;51.380;13.762;2023-03-23T00:37:05;3.45;;;1.60;;
27265;SDS011;14766;51.380;13.762;2023-03-23T00:39:33;2.88;;;1.17;;
27265;SDS011;14766;51.380;13.762;2023-03-23T00:42:02;1.52;;;1.30;;
27265;SDS011;14766;51.380;13.762;2023-03-23T00:44:29;2.08;;;1.20;;
27265;SDS011;14766;51.380;13.762;2023-03-23T00:46:57;2.08;;;1.25;;
27265;SDS011;14766;51.380;13.762;2023-03-23T00:49:24;2.90;;;1.50;;
27265;SDS011;14766;51.380;13.762;2023-03-23T00:51:52;2.60;;;1.40;;
27265;SDS011;14766;51.380;13.762;2023-03-23T00:54:20;2.78;;;1.08;;
27265;SDS011;14766;51.380;13.762;2023-03-23T00:56:48;1.55;;;1.30;;
27265;SDS011;14766;51.380;13.762;2023-03-23T00:59:15;1.60;;;1.10;;
27265;SDS011;14766;51.380;13.762;2023-03-23T01:01:43;1.83;;;1.30;;
27265;SDS011;14766;51.380;13.762;2023-03-23T01:04:09;1.20;;;0.93;;
27265;SDS011;14766;51.380;13.762;2023-03-23T01:06:38;1.88;;;1.20;;
27265;SDS011;14766;51.380;13.762;2023-03-23T01:09:10;1.98;;;1.10;;
27265;SDS011;14766;51.380;13.762;2023-03-23T01:11:42;3.03;;;1.15;;
27265;SDS011;14766;51.380;13.762;2023-03-23T01:14:10;2.33;;;1.35;;
27265;SDS011;14766;51.380;13.762;2023-03-23T01:16:36;1.45;;;1.20;;
27265;SDS011;14766;51.380;13.762;2023-03-23T01:19:02;1.92;;;1.10;;
27265;SDS011;14766;51.380;13.762;2023-03-23T01:21:28;1.40;;;1.20;;
27265;SDS011;14766;51.380;13.762;2023-03-23T01:23:55;1.83;;;1.20;;
27265;SDS011;14766;51.380;13.762;2023-03-23T01:26:22;2.22;;;1.15;;
27265;SDS011;14766;51.380;13.762;2023-03-23T01:28:50;1.92;;;1.48;;
27265;SDS011;14766;51.380;13.762;2023-03-23T01:31:18;2.60;;;1.33;;
27265;SDS011;14766;51.380;13.762;2023-03-23T01:33:46;2.90;;;1.00;;
27265;SDS011;14766;51.380;13.762;2023-03-23T01:36:17;2.15;;;1.13;;
27265;SDS011;14766;51.380;13.762;2023-03-23T01:38:45;2.20;;;1.40;;
27265;SDS011;14766;51.380;13.762;2023-03-23T01:41:13;1.83;;;1.05;;
27265;SDS011;14766;51.380;13.762;2023-03-23T01:46:25;3.75;;;1.45;;
27265;SDS011;14766;51.380;13.762;2023-03-23T01:48:52;1.88;;;1.13;;
27265;SDS011;14766;51.380;13.762;2023-03-23T01:51:21;2.20;;;1.38;;
27265;SDS011;14766;51.380;13.762;2023-03-23T01:53:51;1.50;;;1.10;;
27265;SDS011;14766;51.380;13.762;2023-03-23T01:56:24;2.08;;;1.10;;
27265;SDS011;14766;51.380;13.762;2023-03-23T01:58:56;1.35;;;1.00;;
27265;SDS011;14766;51.380;13.762;2023-03-23T02:01:24;1.52;;;1.00;;
27265;SDS011;14766;51.380;13.762;2023-03-23T02:03:51;0.98;;;0.80;;
27265;SDS011;14766;51.380;13.762;2023-03-23T02:06:20;1.10;;;0.93;;
27265;SDS011;14766;51.380;13.762;2023-03-23T02:09:06;0.75;;;0.75;;
27265;SDS011;14766;51.380;13.762;2023-03-23T02:11:33;1.42;;;1.02;;
27265;SDS011;14766;51.380;13.762;2023-03-23T02:14:01;2.17;;;0.88;;
27265;SDS011;14766;51.380;13.762;2023-03-23T02:25:11;0.95;;;0.77;;
27265;SDS011;14766;51.380;13.762;2023-03-23T02:30:32;1.25;;;0.85;;
27265;SDS011;14766;51.380;13.762;2023-03-23T02:33:27;1.23;;;0.80;;
27265;SDS011;14766;51.380;13.762;2023-03-23T02:36:11;1.15;;;0.90;;
27265;SDS011;14766;51.380;13.762;2023-03-23T02:41:19;1.55;;;0.80;;
27265;SDS011;14766;51.380;13.762;2023-03-23T02:43:48;1.13;;;0.80;;
27265;SDS011;14766;51.380;13.762;2023-03-23T02:46:16;0.80;;;0.80;;
27265;SDS011;14766;51.380;13.762;2023-03-23T02:48:43;2.55;;;0.80;;
27265;SDS011;14766;51.380;13.762;2023-03-23T02:51:11;0.60;;;0.60;;
27265;SDS011;14766;51.380;13.762;2023-03-23T02:53:39;1.20;;;0.70;;
27265;SDS011;14766;51.380;13.762;2023-03-23T02:56:07;0.98;;;0.70;;
27265;SDS011;14766;51.380;13.762;2023-03-23T02:58:36;2.35;;;0.70;;
27265;SDS011;14766;51.380;13.762;2023-03-23T03:03:50;1.40;;;0.90;;
27265;SDS011;14766;51.380;13.762;2023-03-23T03:06:27;0.90;;;0.70;;
27265;SDS011;14766;51.380;13.762;2023-03-23T03:09:07;0.60;;;0.60;;
27265;SDS011;14766;51.380;13.762;2023-03-23T03:11:42;1.10;;;0.90;;
27265;SDS011;14766;51.380;13.762;2023-03-23T03:14:16;1.33;;;0.75;;
27265;SDS011;14766;51.380;13.762;2023-03-23T03:17:02;0.90;;;0.70;;
27265;SDS011;14766;51.380;13.762;2023-03-23T03:19:45;1.67;;;0.70;;
27265;SDS011;14766;51.380;13.762;2023-03-23T03:22:14;0.95;;;0.70;;
27265;SDS011;14766;51.380;13.762;2023-03-23T03:24:42;1.08;;;0.85;;
27265;SDS011;14766;51.380;13.762;2023-03-23T03:27:16;0.90;;;0.60;;
27265;SDS011;14766;51.380;13.762;2023-03-23T03:29:54;1.20;;;0.60;;
27265;SDS011;14766;51.380;13.762;2023-03-23T03:32:31;0.90;;;0.68;;
27265;SDS011;14766;51.380;13.762;2023-03-23T03:35:05;0.88;;;0.70;;
27265;SDS011;14766;51.380;13.762;2023-03-23T03:37:35;0.70;;;0.70;;
27265;SDS011;14766;51.380;13.762;2023-03-23T03:40:05;0.65;;;0.60;;
27265;SDS011;14766;51.380;13.762;2023-03-23T03:42:40;0.80;;;0.68;;
27265;SDS011;14766;51.380;13.762;2023-03-23T03:45:08;1.20;;;0.70;;
27265;SDS011;14766;51.380;13.762;2023-03-23T03:47:37;0.80;;;0.73;;
27265;SDS011;14766;51.380;13.762;2023-03-23T03:50:06;0.63;;;0.60;;
27265;SDS011;14766;51.380;13.762;2023-03-23T03:52:33;2.00;;;0.70;;
27265;SDS011;14766;51.380;13.762;2023-03-23T03:54:59;1.42;;;0.70;;
27265;SDS011;14766;51.380;13.762;2023-03-23T03:57:27;0.63;;;0.57;;
27265;SDS011;14766;51.380;13.762;2023-03-23T04:00:12;1.05;;;0.77;;
27265;SDS011;14766;51.380;13.762;2023-03-23T04:02:40;0.50;;;0.50;;
27265;SDS011;14766;51.380;13.762;2023-03-23T04:05:07;0.85;;;0.68;;
27265;SDS011;14766;51.380;13.762;2023-03-23T04:07:35;1.15;;;0.70;;
27265;SDS011;14766;51.380;13.762;2023-03-23T04:10:07;1.38;;;0.82;;
27265;SDS011;14766;51.380;13.762;2023-03-23T04:12:35;2.58;;;0.90;;
27265;SDS011;14766;51.380;13.762;2023-03-23T04:15:20;1.20;;;0.87;;
27265;SDS011;14766;51.380;13.762;2023-03-23T04:17:47;0.50;;;0.50;;
27265;SDS011;14766;51.380;13.762;2023-03-23T04:20:13;1.80;;;0.70;;
27265;SDS011;14766;51.380;13.762;2023-03-23T04:22:48;0.77;;;0.60;;
27265;SDS011;14766;51.380;13.762;2023-03-23T04:25:15;2.90;;;0.75;;
27265;SDS011;14766;51.380;13.762;2023-03-23T04:27:50;2.15;;;0.80;;
27265;SDS011;14766;51.380;13.762;2023-03-23T04:30:25;1.80;;;0.98;;
27265;SDS011;14766;51.380;13.762;2023-03-23T04:33:08;2.05;;;0.90;;
27265;SDS011;14766;51.380;13.762;2023-03-23T04:35:45;1.55;;;0.90;;
27265;SDS011;14766;51.380;13.762;2023-03-23T04:38:21;1.90;;;1.00;;
27265;SDS011;14766;51.380;13.762;2023-03-23T04:40:55;1.10;;;0.88;;
27265;SDS011;14766;51.380;13.762;2023-03-23T04:43:38;1.55;;;0.93;;
27265;SDS011;14766;51.380;13.762;2023-03-23T04:46:22;1.27;;;0.77;;
27265;SDS011;14766;51.380;13.762;2023-03-23T04:48:50;1.48;;;0.90;;
27265;SDS011;14766;51.380;13.762;2023-03-23T04:51:20;1.90;;;0.98;;
27265;SDS011;14766;51.380;13.762;2023-03-23T04:53:49;1.67;;;0.90;;
27265;SDS011;14766;51.380;13.762;2023-03-23T04:56:16;0.98;;;0.80;;
27265;SDS011;14766;51.380;13.762;2023-03-23T04:58:44;1.48;;;1.15;;
27265;SDS011;14766;51.380;13.762;2023-03-23T05:01:29;1.77;;;0.80;;
27265;SDS011;14766;51.380;13.762;2023-03-23T05:04:23;1.50;;;0.90;;
27265;SDS011;14766;51.380;13.762;2023-03-23T05:07:00;1.60;;;1.13;;
27265;SDS011;14766;51.380;13.762;2023-03-23T05:09:29;1.95;;;1.00;;
27265;SDS011;14766;51.380;13.762;2023-03-23T05:11:55;0.98;;;0.88;;
27265;SDS011;14766;51.380;13.762;2023-03-23T05:14:23;1.77;;;1.40;;
27265;SDS011;14766;51.380;13.762;2023-03-23T05:17:01;2.00;;;1.30;;
27265;SDS011;14766;51.380;13.762;2023-03-23T05:19:28;1.58;;;1.15;;
27265;SDS011;14766;51.380;13.762;2023-03-23T05:21:57;2.50;;;1.00;;
27265;SDS011;14766;51.380;13.762;2023-03-23T05:24:32;1.63;;;1.00;;
27265;SDS011;14766;51.380;13.762;2023-03-23T05:27:02;1.75;;;1.30;;
27265;SDS011;14766;51.380;13.762;2023-03-23T05:29:32;2.67;;;1.00;;
27265;SDS011;14766;51.380;13.762;2023-03-23T05:32:04;2.17;;;1.25;;
27265;SDS011;14766;51.380;13.762;2023-03-23T05:34:35;2.22;;;0.90;;
27265;SDS011;14766;51.380;13.762;2023-03-23T05:37:02;1.60;;;1.00;;
27265;SDS011;14766;51.380;13.762;2023-03-23T05:39:35;3.33;;;1.00;;
27265;SDS011;14766;51.380;13.762;2023-03-23T05:42:22;2.13;;;0.90;;
27265;SDS011;14766;51.380;13.762;2023-03-23T05:45:04;1.52;;;0.90;;
27265;SDS011;14766;51.380;13.762;2023-03-23T05:47:31;1.08;;;0.95;;
27265;SDS011;14766;51.380;13.762;2023-03-23T05:50:04;1.77;;;1.00;;
27265;SDS011;14766;51.380;13.762;2023-03-23T05:52:33;2.20;;;1.33;;
27265;SDS011;14766;51.380;13.762;2023-03-23T05:55:03;2.10;;;1.45;;
27265;SDS011;14766;51.380;13.762;2023-03-23T05:57:33;2.60;;;1.30;;
27265;SDS011;14766;51.380;13.762;2023-03-23T06:00:04;2.35;;;1.30;;
27265;SDS011;14766;51.380;13.762;2023-03-23T06:05:26;1.80;;;1.13;;
27265;SDS011;14766;51.380;13.762;2023-03-23T06:07:54;1.42;;;1.10;;
27265;SDS011;14766;51.380;13.762;2023-03-23T06:10:20;1.85;;;1.20;;
27265;SDS011;14766;51.380;13.762;2023-03-23T06:12:54;1.23;;;1.10;;
27265;SDS011;14766;51.380;13.762;2023-03-23T06:15:43;1.52;;;0.90;;
27265;SDS011;14766;51.380;13.762;2023-03-23T06:18:12;1.80;;;1.20;;
27265;SDS011;14766;51.380;13.762;2023-03-23T06:20:58;2.42;;;1.20;;
27265;SDS011;14766;51.380;13.762;2023-03-23T06:23:45;2.30;;;1.08;;
27265;SDS011;14766;51.380;13.762;2023-03-23T06:26:14;2.78;;;1.20;;
27265;SDS011;14766;51.380;13.762;2023-03-23T06:28:46;2.20;;;1.10;;
27265;SDS011;14766;51.380;13.762;2023-03-23T06:31:12;2.08;;;0.90;;
27265;SDS011;14766;51.380;13.762;2023-03-23T06:33:40;1.20;;;0.80;;
27265;SDS011;14766;51.380;13.762;2023-03-23T06:36:26;2.80;;;1.20;;
27265;SDS011;14766;51.380;13.762;2023-03-23T06:39:09;2.83;;;1.17;;
27265;SDS011;14766;51.380;13.762;2023-03-23T06:41:58;2.08;;;1.20;;
27265;SDS011;14766;51.380;13.762;2023-03-23T06:44:30;1.65;;;0.93;;
27265;SDS011;14766;51.380;13.762;2023-03-23T06:46:56;1.88;;;1.00;;
27265;SDS011;14766;51.380;13.762;2023-03-23T06:49:30;1.48;;;1.10;;
27265;SDS011;14766;51.380;13.762;2023-03-23T06:52:19;3.50;;;1.20;;
27265;SDS011;14766;51.380;13.762;2023-03-23T06:54:49;1.05;;;0.98;;
27265;SDS011;14766;51.380;13.762;2023-03-23T06:57:17;3.13;;;1.10;;
27265;SDS011;14766;51.380;13.762;2023-03-23T06:59:45;1.40;;;1.17;;
27265;SDS011;14766;51.380;13.762;2023-03-23T07:02:12;1.60;;;1.30;;
27265;SDS011;14766;51.380;13.762;2023-03-23T07:04:45;1.40;;;0.98;;
27265;SDS011;14766;51.380;13.762;2023-03-23T07:07:19;1.80;;;1.38;;
27265;SDS011;14766;51.380;13.762;2023-03-23T07:10:10;1.30;;;1.02;;
27265;SDS011;14766;51.380;13.762;2023-03-23T07:12:37;1.75;;;1.25;;
27265;SDS011;14766;51.380;13.762;2023-03-23T07:15:06;1.40;;;1.10;;
27265;SDS011;14766;51.380;13.762;2023-03-23T07:17:36;1.67;;;1.02;;
27265;SDS011;14766;51.380;13.762;2023-03-23T07:20:15;2.95;;;1.55;;
27265;SDS011;14766;51.380;13.762;2023-03-23T07:22:42;1.35;;;1.02;;
27265;SDS011;14766;51.380;13.762;2023-03-23T07:25:19;1.58;;;1.00;;
27265;SDS011;14766;51.380;13.762;2023-03-23T07:27:53;1.45;;;1.00;;
27265;SDS011;14766;51.380;13.762;2023-03-23T07:30:20;1.75;;;1.20;;
27265;SDS011;14766;51.380;13.762;2023-03-23T07:32:46;1.90;;;1.20;;
27265;SDS011;14766;51.380;13.762;2023-03-23T07:35:13;3.00;;;1.20;;
27265;SDS011;14766;51.380;13.762;2023-03-23T07:37:51;1.52;;;1.15;;
27265;SDS011;14766;51.380;13.762;2023-03-23T07:40:18;1.48;;;1.20;;
27265;SDS011;14766;51.380;13.762;2023-03-23T07:42:53;2.55;;;1.30;;
27265;SDS011;14766;51.380;13.762;2023-03-23T07:45:35;0.90;;;0.90;;
27265;SDS011;14766;51.380;13.762;2023-03-23T07:48:01;1.20;;;1.10;;
27265;SDS011;14766;51.380;13.762;2023-03-23T07:50:29;3.13;;;1.25;;
27265;SDS011;14766;51.380;13.762;2023-03-23T07:52:56;3.35;;;1.20;;
27265;SDS011;14766;51.380;13.762;2023-03-23T07:55:26;3.38;;;1.10;;
27265;SDS011;14766;51.380;13.762;2023-03-23T07:58:12;1.00;;;0.90;;
27265;SDS011;14766;51.380;13.762;2023-03-23T08:00:48;3.30;;;1.23;;
27265;SDS011;14766;51.380;13.762;2023-03-23T08:03:16;2.33;;;1.27;;
27265;SDS011;14766;51.380;13.762;2023-03-23T08:06:06;2.38;;;1.35;;
27265;SDS011;14766;51.380;13.762;2023-03-23T08:08:42;2.85;;;1.40;;
27265;SDS011;14766;51.380;13.762;2023-03-23T08:11:27;1.65;;;1.10;;
27265;SDS011;14766;51.380;13.762;2023-03-23T08:14:13;2.10;;;1.55;;
27265;SDS011;14766;51.380;13.762;2023-03-23T08:16:56;9.93;;;6.70;;
27265;SDS011;14766;51.380;13.762;2023-03-23T08:19:48;6.65;;;3.90;;
27265;SDS011;14766;51.380;13.762;2023-03-23T08:22:51;3.95;;;2.00;;
27265;SDS011;14766;51.380;13.762;2023-03-23T08:25:35;3.13;;;1.38;;
27265;SDS011;14766;51.380;13.762;2023-03-23T08:28:13;1.65;;;1.10;;
27265;SDS011;14766;51.380;13.762;2023-03-23T08:30:58;1.92;;;1.40;;
27265;SDS011;14766;51.380;13.762;2023-03-23T08:33:44;2.17;;;1.38;;
27265;SDS011;14766;51.380;13.762;2023-03-23T08:36:34;1.60;;;1.20;;
27265;SDS011;14766;51.380;13.762;2023-03-23T08:39:20;1.65;;;1.13;;
27265;SDS011;14766;51.380;13.762;2023-03-23T08:42:05;2.08;;;1.20;;
27265;SDS011;14766;51.380;13.762;2023-03-23T08:44:48;1.80;;;1.40;;
27265;SDS011;14766;51.380;13.762;2023-03-23T08:47:35;1.95;;;1.23;;
27265;SDS011;14766;51.380;13.762;2023-03-23T08:50:14;3.90;;;1.80;;
27265;SDS011;14766;51.380;13.762;2023-03-23T08:52:51;1.42;;;1.33;;
27265;SDS011;14766;51.380;13.762;2023-03-23T08:55:32;3.28;;;1.52;;
27265;SDS011;14766;51.380;13.762;2023-03-23T08:58:17;3.17;;;1.65;;
27265;SDS011;14766;51.380;13.762;2023-03-23T09:01:09;1.25;;;1.10;;
27265;SDS011;14766;51.380;13.762;2023-03-23T09:03:42;2.17;;;1.40;;
27265;SDS011;14766;51.380;13.762;2023-03-23T09:06:35;1.85;;;1.40;;
27265;SDS011;14766;51.380;13.762;2023-03-23T09:09:02;1.77;;;1.30;;
27265;SDS011;14766;51.380;13.762;2023-03-23T09:11:35;1.55;;;1.40;;
27265;SDS011;14766;51.380;13.762;2023-03-23T09:14:02;2.53;;;1.23;;
27265;SDS011;14766;51.380;13.762;2023-03-23T09:16:30;1.92;;;1.23;;
27265;SDS011;14766;51.380;13.762;2023-03-23T09:18:56;1.92;;;1.30;;
27265;SDS011;14766;51.380;13.762;2023-03-23T09:21:23;1.35;;;1.13;;
27265;SDS011;14766;51.380;13.762;2023-03-23T09:23:50;2.47;;;1.15;;
27265;SDS011;14766;51.380;13.762;2023-03-23T09:26:16;2.17;;;1.52;;
27265;SDS011;14766;51.380;13.762;2023-03-23T09:28:43;2.33;;;1.50;;
27265;SDS011;14766;51.380;13.762;2023-03-23T09:31:11;2.30;;;1.10;;
27265;SDS011;14766;51.380;13.762;2023-03-23T09:33:38;2.60;;;1.40;;
27265;SDS011;14766;51.380;13.762;2023-03-23T09:36:07;2.92;;;1.25;;
27265;SDS011;14766;51.380;13.762;2023-03-23T09:38:37;3.38;;;1.40;;
27265;SDS011;14766;51.380;13.762;2023-03-23T09:41:07;1.45;;;1.30;;
27265;SDS011;14766;51.380;13.762;2023-03-23T09:44:07;2.05;;;1.35;;
27265;SDS011;14766;51.380;13.762;2023-03-23T09:49:17;2.33;;;1.20;;
27265;SDS011;14766;51.380;13.762;2023-03-23T09:54:20;1.80;;;1.15;;
27265;SDS011;14766;51.380;13.762;2023-03-23T09:56:50;2.92;;;1.40;;
27265;SDS011;14766;51.380;13.762;2023-03-23T09:59:19;2.08;;;1.30;;
27265;SDS011;14766;51.380;13.762;2023-03-23T10:07:22;2.22;;;1.38;;
27265;SDS011;14766;51.380;13.762;2023-03-23T10:09:55;2.58;;;1.65;;
27265;SDS011;14766;51.380;13.762;2023-03-23T10:12:34;2.72;;;1.20;;
27265;SDS011;14766;51.380;13.762;2023-03-23T10:18:19;3.05;;;1.50;;
27265;SDS011;14766;51.380;13.762;2023-03-23T10:21:04;2.47;;;1.55;;
27265;SDS011;14766;51.380;13.762;2023-03-23T10:32:13;2.53;;;1.38;;
27265;SDS011;14766;51.380;13.762;2023-03-23T10:34:44;2.60;;;1.50;;
27265;SDS011;14766;51.380;13.762;2023-03-23T10:37:23;2.65;;;1.48;;
27265;SDS011;14766;51.380;13.762;2023-03-23T10:39:54;1.50;;;1.40;;
27265;SDS011;14766;51.380;13.762;2023-03-23T10:42:26;1.80;;;1.50;;
27265;SDS011;14766;51.380;13.762;2023-03-23T10:45:09;3.88;;;1.80;;
27265;SDS011;14766;51.380;13.762;2023-03-23T10:47:51;2.10;;;1.60;;
27265;SDS011;14766;51.380;13.762;2023-03-23T10:50:22;1.90;;;1.40;;
27265;SDS011;14766;51.380;13.762;2023-03-23T10:52:52;2.80;;;1.60;;
27265;SDS011;14766;51.380;13.762;2023-03-23T10:55:23;4.78;;;2.03;;
27265;SDS011;14766;51.380;13.762;2023-03-23T10:57:59;1.67;;;1.40;;
27265;SDS011;14766;51.380;13.762;2023-03-23T11:00:27;1.88;;;1.60;;
27265;SDS011;14766;51.380;13.762;2023-03-23T11:02:59;5.28;;;1.98;;
27265;SDS011;14766;51.380;13.762;2023-03-23T11:08:14;2.47;;;1.25;;
27265;SDS011;14766;51.380;13.762;2023-03-23T11:10:57;2.40;;;1.63;;
27265;SDS011;14766;51.380;13.762;2023-03-23T11:13:29;2.13;;;1.50;;
27265;SDS011;14766;51.380;13.762;2023-03-23T11:15:57;1.73;;;1.27;;
27265;SDS011;14766;51.380;13.762;2023-03-23T11:21:02;2.03;;;1.27;;
27265;SDS011;14766;51.380;13.762;2023-03-23T11:23:31;2.92;;;1.60;;
27265;SDS011;14766;51.380;13.762;2023-03-23T11:26:20;1.55;;;1.35;;
27265;SDS011;14766;51.380;13.762;2023-03-23T11:31:21;1.88;;;1.35;;
27265;SDS011;14766;51.380;13.762;2023-03-23T11:36:18;1.90;;;1.52;;
27265;SDS011;14766;51.380;13.762;2023-03-23T11:38:45;2.08;;;1.20;;
27265;SDS011;14766;51.380;13.762;2023-03-23T11:41:12;4.43;;;1.80;;
27265;SDS011;14766;51.380;13.762;2023-03-23T11:43:44;2.40;;;1.48;;
27265;SDS011;14766;51.380;13.762;2023-03-23T11:46:18;1.77;;;1.50;;
27265;SDS011;14766;51.380;13.762;2023-03-23T11:48:51;1.48;;;1.30;;
27265;SDS011;14766;51.380;13.762;2023-03-23T11:51:39;5.75;;;3.35;;
27265;SDS011;14766;51.380;13.762;2023-03-23T11:54:21;6.97;;;4.57;;
27265;SDS011;14766;51.380;13.762;2023-03-23T11:56:52;4.60;;;3.40;;
27265;SDS011;14766;51.380;13.762;2023-03-23T11:59:53;4.78;;;2.72;;
27265;SDS011;14766;51.380;13.762;2023-03-23T12:13:24;1.70;;;1.20;;
27265;SDS011;14766;51.380;13.762;2023-03-23T12:21:40;2.53;;;1.60;;
27265;SDS011;14766;51.380;13.762;2023-03-23T12:26:55;2.78;;;1.30;;
27265;SDS011;14766;51.380;13.762;2023-03-23T12:38:14;2.80;;;1.90;;
27265;SDS011;14766;51.380;13.762;2023-03-23T12:40:54;2.40;;;1.73;;
27265;SDS011;14766;51.380;13.762;2023-03-23T12:49:22;3.10;;;2.20;;
27265;SDS011;14766;51.380;13.762;2023-03-23T12:57:15;3.60;;;2.30;;
27265;SDS011;14766;51.380;13.762;2023-03-23T13:00:06;4.43;;;2.63;;
27265;SDS011;14766;51.380;13.762;2023-03-23T13:07:56;4.60;;;2.83;;
27265;SDS011;14766;51.380;13.762;2023-03-23T13:10:28;7.10;;;4.78;;
27265;SDS011;14766;51.380;13.762;2023-03-23T13:12:58;2.17;;;1.70;;
27265;SDS011;14766;51.380;13.762;2023-03-23T13:23:23;1.67;;;1.35;;
27265;SDS011;14766;51.380;13.762;2023-03-23T13:28:16;1.88;;;1.30;;
27265;SDS011;14766;51.380;13.762;2023-03-23T13:33:22;2.20;;;1.50;;
27265;SDS011;14766;51.380;13.762;2023-03-23T13:35:49;1.02;;;0.90;;
27265;SDS011;14766;51.380;13.762;2023-03-23T13:38:23;1.30;;;1.17;;
27265;SDS011;14766;51.380;13.762;2023-03-23T13:40:53;2.40;;;1.77;;
27265;SDS011;14766;51.380;13.762;2023-03-23T13:43:31;1.40;;;1.05;;
27265;SDS011;14766;51.380;13.762;2023-03-23T13:46:10;1.20;;;1.10;;
27265;SDS011;14766;51.380;13.762;2023-03-23T13:48:44;2.17;;;1.42;;
27265;SDS011;14766;51.380;13.762;2023-03-23T13:51:32;1.70;;;1.40;;
27265;SDS011;14766;51.380;13.762;2023-03-23T13:54:20;2.20;;;1.30;;
27265;SDS011;14766;51.380;13.762;2023-03-23T13:56:53;2.28;;;1.50;;
27265;SDS011;14766;51.380;13.762;2023-03-23T14:01:53;1.55;;;1.25;;
27265;SDS011;14766;51.380;13.762;2023-03-23T14:04:20;1.88;;;1.30;;
27265;SDS011;14766;51.380;13.762;2023-03-23T14:06:49;1.60;;;1.25;;
27265;SDS011;14766;51.380;13.762;2023-03-23T14:09:27;2.85;;;1.45;;
27265;SDS011;14766;51.380;13.762;2023-03-23T14:14:26;2.05;;;1.55;;
27265;SDS011;14766;51.380;13.762;2023-03-23T14:19:57;2.58;;;1.40;;
27265;SDS011;14766;51.380;13.762;2023-03-23T14:22:35;2.50;;;1.58;;
27265;SDS011;14766;51.380;13.762;2023-03-23T14:25:37;1.27;;;1.17;;
27265;SDS011;14766;51.380;13.762;2023-03-23T14:27:58;1.58;;;1.35;;
27265;SDS011;14766;51.380;13.762;2023-03-23T14:30:25;2.90;;;1.27;;
27265;SDS011;14766;51.380;13.762;2023-03-23T14:33:03;1.95;;;1.08;;
27265;SDS011;14766;51.380;13.762;2023-03-23T14:35:32;2.25;;;1.13;;
27265;SDS011;14766;51.380;13.762;2023-03-23T14:38:00;2.20;;;1.70;;
27265;SDS011;14766;51.380;13.762;2023-03-23T14:40:27;2.80;;;1.45;;
27265;SDS011;14766;51.380;13.762;2023-03-23T14:42:55;1.38;;;0.95;;
27265;SDS011;14766;51.380;13.762;2023-03-23T14:45:22;1.25;;;1.00;;
27265;SDS011;14766;51.380;13.762;2023-03-23T14:50:31;2.25;;;0.98;;
27265;SDS011;14766;51.380;13.762;2023-03-23T14:53:44;0.98;;;0.93;;
27265;SDS011;14766;51.380;13.762;2023-03-23T14:55:59;1.10;;;0.82;;
27265;SDS011;14766;51.380;13.762;2023-03-23T14:58:27;1.73;;;1.30;;
27265;SDS011;14766;51.380;13.762;2023-03-23T15:01:05;2.33;;;1.08;;
27265;SDS011;14766;51.380;13.762;2023-03-23T15:03:43;1.80;;;1.10;;
27265;SDS011;14766;51.380;13.762;2023-03-23T15:06:18;1.60;;;0.90;;
27265;SDS011;14766;51.380;13.762;2023-03-23T15:08:47;2.03;;;1.00;;
27265;SDS011;14766;51.380;13.762;2023-03-23T15:13:45;0.82;;;0.80;;
27265;SDS011;14766;51.380;13.762;2023-03-23T15:16:16;1.02;;;0.82;;
27265;SDS011;14766;51.380;13.762;2023-03-23T15:18:55;0.90;;;0.80;;
27265;SDS011;14766;51.380;13.762;2023-03-23T15:21:25;1.88;;;1.20;;
27265;SDS011;14766;51.380;13.762;2023-03-23T15:23:59;1.17;;;0.95;;
27265;SDS011;14766;51.380;13.762;2023-03-23T15:26:29;1.30;;;0.93;;
27265;SDS011;14766;51.380;13.762;2023-03-23T15:29:20;2.00;;;1.00;;
27265;SDS011;14766;51.380;13.762;2023-03-23T15:31:53;2.05;;;1.00;;
27265;SDS011;14766;51.380;13.762;2023-03-23T15:34:34;2.65;;;1.10;;
27265;SDS011;14766;51.380;13.762;2023-03-23T15:37:18;1.75;;;1.10;;
27265;SDS011;14766;51.380;13.762;2023-03-23T15:39:47;6.05;;;3.50;;
27265;SDS011;14766;51.380;13.762;2023-03-23T15:42:48;6.45;;;3.30;;
27265;SDS011;14766;51.380;13.762;2023-03-23T15:50:03;1.90;;;1.13;;
27265;SDS011;14766;51.380;13.762;2023-03-23T15:52:52;2.22;;;1.52;;
27265;SDS011;14766;51.380;13.762;2023-03-23T15:57:48;2.88;;;1.50;;
27265;SDS011;14766;51.380;13.762;2023-03-23T16:00:19;1.52;;;1.15;;
27265;SDS011;14766;51.380;13.762;2023-03-23T16:02:49;1.60;;;1.27;;
27265;SDS011;14766;51.380;13.762;2023-03-23T16:05:20;1.27;;;1.17;;
27265;SDS011;14766;51.380;13.762;2023-03-23T16:07:47;2.92;;;1.38;;
27265;SDS011;14766;51.380;13.762;2023-03-23T16:10:17;2.65;;;1.48;;
27265;SDS011;14766;51.380;13.762;2023-03-23T16:12:47;1.95;;;1.02;;
27265;SDS011;14766;51.380;13.762;2023-03-23T16:15:14;2.25;;;1.20;;
27265;SDS011;14766;51.380;13.762;2023-03-23T16:17:42;1.13;;;1.00;;
27265;SDS011;14766;51.380;13.762;2023-03-23T16:20:14;1.45;;;1.00;;
27265;SDS011;14766;51.380;13.762;2023-03-23T16:22:42;1.65;;;1.20;;
27265;SDS011;14766;51.380;13.762;2023-03-23T16:25:09;2.28;;;1.40;;
27265;SDS011;14766;51.380;13.762;2023-03-23T16:27:38;1.40;;;1.27;;
27265;SDS011;14766;51.380;13.762;2023-03-23T16:30:16;2.42;;;1.30;;
27265;SDS011;14766;51.380;13.762;2023-03-23T16:32:45;2.45;;;1.40;;
27265;SDS011;14766;51.380;13.762;2023-03-23T16:35:13;2.20;;;1.65;;
27265;SDS011;14766;51.380;13.762;2023-03-23T16:37:47;1.48;;;1.10;;
27265;SDS011;14766;51.380;13.762;2023-03-23T16:40:32;3.15;;;2.33;;
27265;SDS011;14766;51.380;13.762;2023-03-23T16:43:01;8.35;;;4.30;;
27265;SDS011;14766;51.380;13.762;2023-03-23T16:45:35;6.00;;;3.77;;
27265;SDS011;14766;51.380;13.762;2023-03-23T16:48:04;2.28;;;1.50;;
27265;SDS011;14766;51.380;13.762;2023-03-23T16:50:33;5.35;;;3.50;;
27265;SDS011;14766;51.380;13.762;2023-03-23T16:53:04;2.67;;;1.45;;
27265;SDS011;14766;51.380;13.762;2023-03-23T16:55:38;1.60;;;1.35;;
27265;SDS011;14766;51.380;13.762;2023-03-23T16:58:06;3.40;;;1.75;;
27265;SDS011;14766;51.380;13.762;2023-03-23T17:00:44;3.35;;;2.75;;
27265;SDS011;14766;51.380;13.762;2023-03-23T17:03:14;10.07;;;6.32;;
27265;SDS011;14766;51.380;13.762;2023-03-23T17:05:43;6.25;;;3.70;;
27265;SDS011;14766;51.380;13.762;2023-03-23T17:08:13;5.32;;;3.30;;
27265;SDS011;14766;51.380;13.762;2023-03-23T17:10:42;3.92;;;3.22;;
27265;SDS011;14766;51.380;13.762;2023-03-23T17:13:10;3.05;;;1.77;;
27265;SDS011;14766;51.380;13.762;2023-03-23T17:15:41;1.75;;;1.50;;
27265;SDS011;14766;51.380;13.762;2023-03-23T17:18:12;2.00;;;0.90;;
27265;SDS011;14766;51.380;13.762;2023-03-23T17:20:40;2.10;;;1.10;;
27265;SDS011;14766;51.380;13.762;2023-03-23T17:23:13;2.22;;;1.15;;